EDSB METAR and TAF | Updated Today

EDSB METAR

Karlsruhe Baden-Baden Airport

Observation time: 29 min. ago

EDSB 291020Z 02009KT 9999 BKN025 13/07 Q1014

Need help? Read our tutorial on how to read METARs or read the parsed version below.

Karlsruhe Baden-Baden Airport (EDSB) METAR

  • Weather conditions on Sun, 29 May 2022 10:20:00 +0000 (29 min. ago):
  • Present conditions: Dry
  • Clouds: Broken sky at 762 meters
  • Visibility: Greater than 10 km
  • Wind: 20 degrees at 9 knots
  • Temperature: 13 celsius
  • Dew point: 7 celsius
  • Pressure: 1014 millibars
  • Remarks: None


Useful to know...

EDSB TAF

Karlsruhe Baden-Baden Airport

TAF EDSB 290500Z 2906/3006 03007KT CAVOK TEMPO 2908/2916 SHRA SCT030CB BKN035 PROB30 TEMPO 2910/2915 TSRA
Observation time: 5:49 hr. ago
Need help? Read our tutorial on how to read TAFs or read the parsed version below.

Parsed version of TAF for Karlsruhe Baden-Baden Airport (EDSB)

  • From 29 May at 06:00 UTC, to day 30 of the month at 06:00 UTC
  • Visibility: Greater than 10 km
  • Wind: 30 degrees at 7
  • Expected to arise temporarily, from 29 May at 08:00 UTC, to day 29 of the month at 16:00 UTC
  • Clouds: Scattered at 914 meters, cumulonimbus; broken sky at 1067 meters
  • Expected to arise temporarily, from 29 May at 10:00 UTC, to day 29 of the month at 15:00 UTC
    Probability of 30%

Airports near EDSB